createdAt,value
2022-08-03T00:00:09.239Z,19.176025
2022-08-03T00:01:17.956Z,19.145813
2022-08-03T00:02:25.663Z,19.135742
2022-08-03T00:03:34.350Z,19.115601
2022-08-03T00:04:44.021Z,19.085388
2022-08-03T00:06:02.634Z,19.065247
2022-08-03T00:07:02.427Z,19.024963
2022-08-03T00:08:11.147Z,18.994751
2022-08-03T00:09:20.826Z,18.954468
2022-08-03T00:10:31.491Z,18.954468
2022-08-03T00:11:39.268Z,18.934326
2022-08-03T00:12:47.961Z,18.964539
2022-08-03T00:13:57.645Z,18.934326
2022-08-03T00:15:08.264Z,18.904114
2022-08-03T00:16:15.023Z,18.883972
2022-08-03T00:17:23.704Z,18.863831
2022-08-03T00:18:34.433Z,18.883972
2022-08-03T00:19:44.128Z,18.843689
2022-08-03T00:20:52.814Z,18.803406
2022-08-03T00:22:01.523Z,18.803406
2022-08-03T00:23:11.273Z,18.773193
2022-08-03T00:24:20.018Z,18.773193
2022-08-03T00:25:28.691Z,18.73291
2022-08-03T00:26:36.399Z,18.712769
2022-08-03T00:27:44.171Z,18.73291
2022-08-03T00:28:53.878Z,18.712769
2022-08-03T00:30:01.577Z,18.712769
2022-08-03T00:31:13.234Z,18.662415
2022-08-03T00:32:20.939Z,18.652344
2022-08-03T00:33:29.612Z,18.652344
2022-08-03T00:34:57.074Z,18.632202
2022-08-03T00:35:51.258Z,18.622131
2022-08-03T00:36:58.813Z,18.581848
2022-08-03T00:38:08.482Z,18.501282
2022-08-03T00:39:17.200Z,18.501282
2022-08-03T00:40:25.880Z,18.471069
2022-08-03T00:41:35.699Z,18.450928
2022-08-03T00:42:43.384Z,18.430786
2022-08-03T00:43:53.072Z,18.410645
2022-08-03T00:45:01.756Z,18.400574
2022-08-03T00:46:09.456Z,18.380432
2022-08-03T00:47:19.147Z,18.430786
2022-08-03T00:48:29.853Z,18.440857
2022-08-03T00:49:37.584Z,18.471069
2022-08-03T00:50:47.213Z,18.501282
2022-08-03T00:51:56.862Z,18.551636
2022-08-03T00:53:07.682Z,18.561707
2022-08-03T00:54:17.378Z,18.551636
2022-08-03T00:55:25.054Z,18.450928
2022-08-03T00:56:34.729Z,18.400574
2022-08-03T00:57:45.387Z,18.340149
2022-08-03T00:58:53.112Z,18.289795
2022-08-03T01:00:02.797Z,18.259583
2022-08-03T01:01:12.810Z,18.249512
2022-08-03T01:02:21.224Z,18.249512
2022-08-03T01:03:30.927Z,18.22937
2022-08-03T01:04:39.620Z,18.22937
2022-08-03T01:05:48.270Z,18.199158
2022-08-03T01:06:58.019Z,18.189087
2022-08-03T01:08:08.801Z,18.189087
2022-08-03T01:09:18.436Z,18.158875
2022-08-03T01:10:27.148Z,18.148804
2022-08-03T01:11:35.854Z,18.128662
2022-08-03T01:12:46.509Z,18.108521
2022-08-03T01:14:01.019Z,18.108521
2022-08-03T01:15:04.858Z,18.09845
2022-08-03T01:16:15.547Z,18.09845
2022-08-03T01:17:24.210Z,18.078308
2022-08-03T01:18:33.865Z,18.048096
2022-08-03T01:19:42.537Z,18.048096
2022-08-03T01:20:50.230Z,18.038025
2022-08-03T01:21:59.928Z,18.038025
2022-08-03T01:23:06.581Z,18.007812
2022-08-03T01:24:15.241Z,18.007812
2022-08-03T01:25:24.920Z,17.997742
2022-08-03T01:26:33.584Z,17.997742
2022-08-03T01:27:43.255Z,17.997742
2022-08-03T01:28:51.939Z,17.997742
2022-08-03T01:30:00.600Z,17.997742
2022-08-03T01:31:10.288Z,17.997742
2022-08-03T01:32:52.106Z,18.007812
2022-08-03T01:33:28.619Z,17.997742
2022-08-03T01:34:38.288Z,18.027954
2022-08-03T01:35:45.987Z,18.038025
2022-08-03T01:36:55.650Z,18.027954
2022-08-03T01:38:04.382Z,18.048096
2022-08-03T01:39:12.149Z,18.038025
2022-08-03T01:40:21.825Z,18.007812
2022-08-03T01:41:31.514Z,17.967529
2022-08-03T01:42:40.217Z,17.947388
2022-08-03T01:43:55.618Z,17.897034
2022-08-03T01:45:00.596Z,17.897034
2022-08-03T01:46:10.278Z,17.886963
2022-08-03T01:47:18.967Z,17.886963
2022-08-03T01:48:27.646Z,17.917175
2022-08-03T01:49:37.401Z,17.917175
2022-08-03T01:50:45.010Z,17.917175
2022-08-03T01:51:58.041Z,17.866821
2022-08-03T01:53:04.310Z,17.816467
2022-08-03T01:54:11.974Z,17.776184
2022-08-03T01:55:21.639Z,17.756042
2022-08-03T01:56:31.576Z,17.695618
2022-08-03T01:58:04.958Z,17.665405
2022-08-03T01:58:50.857Z,17.625122
2022-08-03T01:59:58.515Z,17.625122
2022-08-03T02:01:07.290Z,17.59491
2022-08-03T02:02:29.908Z,17.60498
2022-08-03T02:03:27.565Z,17.60498
2022-08-03T02:04:37.208Z,17.564697
2022-08-03T02:05:45.883Z,17.524414
2022-08-03T02:07:00.909Z,17.484131
2022-08-03T02:08:06.239Z,17.453918
2022-08-03T02:09:15.905Z,17.413635
2022-08-03T02:10:35.063Z,17.413635
2022-08-03T02:11:35.235Z,17.393494
2022-08-03T02:12:45.896Z,17.383423
2022-08-03T02:13:53.560Z,17.34314
2022-08-03T02:15:02.241Z,17.363281
2022-08-03T02:16:11.902Z,17.333069
2022-08-03T02:17:38.861Z,17.34314
2022-08-03T02:18:32.244Z,17.312927
2022-08-03T02:19:41.951Z,17.302856
2022-08-03T02:20:51.629Z,17.302856
2022-08-03T02:22:01.167Z,17.302856
2022-08-03T02:23:09.976Z,17.312927
2022-08-03T02:24:18.673Z,17.312927
2022-08-03T02:25:26.355Z,17.302856
2022-08-03T02:26:36.039Z,17.302856
2022-08-03T02:27:44.027Z,17.312927
2022-08-03T02:28:52.403Z,17.302856
2022-08-03T02:30:03.077Z,17.302856
2022-08-03T02:31:10.787Z,17.302856
2022-08-03T02:32:20.463Z,17.292786
2022-08-03T02:33:29.133Z,17.272644
2022-08-03T02:34:37.825Z,17.262573
2022-08-03T02:35:46.501Z,17.262573
2022-08-03T02:36:55.196Z,17.262573
2022-08-03T02:38:03.905Z,17.232361
2022-08-03T02:39:13.594Z,17.202148
2022-08-03T02:40:21.287Z,17.192078
2022-08-03T02:41:30.959Z,17.151794
2022-08-03T02:42:40.639Z,17.151794
2022-08-03T02:43:59.066Z,17.151794
2022-08-03T02:44:59.017Z,17.192078
2022-08-03T02:46:09.695Z,17.161865
2022-08-03T02:47:17.367Z,17.141724
2022-08-03T02:48:27.072Z,17.141724
2022-08-03T02:49:51.224Z,17.161865
2022-08-03T02:50:46.384Z,17.192078
2022-08-03T02:51:56.055Z,17.22229
2022-08-03T02:53:04.722Z,17.232361
2022-08-03T02:54:13.407Z,17.232361
2022-08-03T02:55:23.070Z,17.232361
2022-08-03T02:56:30.792Z,17.22229
2022-08-03T02:57:40.462Z,17.242432
2022-08-03T02:58:48.118Z,17.242432
2022-08-03T02:59:55.927Z,17.262573
2022-08-03T03:01:05.677Z,17.22229
2022-08-03T03:02:15.487Z,17.192078
2022-08-03T03:03:24.051Z,17.161865
2022-08-03T03:04:34.755Z,17.151794
2022-08-03T03:05:53.986Z,17.192078
2022-08-03T03:06:54.172Z,17.151794
2022-08-03T03:08:04.821Z,17.121582
2022-08-03T03:09:15.474Z,17.111511
2022-08-03T03:10:26.147Z,17.09137
2022-08-03T03:11:34.859Z,17.09137
2022-08-03T03:12:43.529Z,17.111511
2022-08-03T03:13:53.251Z,17.09137
2022-08-03T03:15:01.919Z,17.09137
2022-08-03T03:16:11.596Z,17.081299
2022-08-03T03:17:20.334Z,17.09137
2022-08-03T03:18:28.010Z,17.081299
2022-08-03T03:19:36.702Z,17.09137
2022-08-03T03:20:45.409Z,17.121582
2022-08-03T03:21:54.077Z,17.141724
2022-08-03T03:23:03.823Z,17.141724
2022-08-03T03:24:12.499Z,17.141724
2022-08-03T03:25:22.182Z,17.111511
2022-08-03T03:26:31.862Z,17.09137
2022-08-03T03:27:42.547Z,17.081299
2022-08-03T03:28:52.285Z,17.041016
2022-08-03T03:30:00.970Z,16.990662
2022-08-03T03:31:09.640Z,16.960449
2022-08-03T03:32:19.387Z,16.940308
2022-08-03T03:33:28.465Z,16.960449
2022-08-03T03:34:36.739Z,16.940308
2022-08-03T03:35:45.461Z,16.960449
2022-08-03T03:36:54.168Z,16.940308
2022-08-03T03:38:03.850Z,16.960449
2022-08-03T03:39:15.132Z,16.940308
2022-08-03T03:40:21.230Z,16.940308
2022-08-03T03:41:30.943Z,16.859741
2022-08-03T03:42:39.593Z,16.789246
2022-08-03T03:43:49.365Z,16.759033
2022-08-03T03:44:59.071Z,16.738892
2022-08-03T03:46:07.747Z,16.688538
2022-08-03T03:47:17.449Z,16.648254
2022-08-03T03:48:28.124Z,16.5979
2022-08-03T03:49:37.902Z,16.557617
2022-08-03T03:50:47.455Z,16.537476
2022-08-03T03:51:55.153Z,16.527405
2022-08-03T03:53:04.821Z,16.497192
2022-08-03T03:54:14.494Z,16.46698
2022-08-03T03:55:24.169Z,16.426697
2022-08-03T03:56:33.871Z,16.416626
2022-08-03T03:57:43.572Z,16.386414
2022-08-03T03:58:52.251Z,16.356201
2022-08-03T04:00:01.931Z,16.386414
2022-08-03T04:01:08.678Z,16.386414
2022-08-03T04:02:18.393Z,16.356201
2022-08-03T04:03:28.103Z,16.386414
2022-08-03T04:04:35.768Z,16.406555
2022-08-03T04:05:45.991Z,16.426697
2022-08-03T04:06:53.137Z,16.497192
2022-08-03T04:08:02.807Z,16.557617
2022-08-03T04:09:12.503Z,16.577759
2022-08-03T04:10:20.170Z,16.607971
2022-08-03T04:11:30.462Z,16.688538
2022-08-03T04:12:39.533Z,16.708679
2022-08-03T04:13:50.256Z,16.678467
2022-08-03T04:15:00.969Z,16.638184
2022-08-03T04:16:09.623Z,16.5979
2022-08-03T04:17:18.321Z,16.658325
2022-08-03T04:18:27.990Z,16.708679
2022-08-03T04:19:36.674Z,16.759033
2022-08-03T04:20:46.362Z,16.779175
2022-08-03T04:21:56.870Z,16.859741
2022-08-03T04:23:04.704Z,16.900024
2022-08-03T04:24:15.360Z,16.889954
2022-08-03T04:25:25.025Z,16.889954
2022-08-03T04:26:33.735Z,16.940308
2022-08-03T04:27:43.407Z,16.990662
2022-08-03T04:28:54.054Z,16.990662
2022-08-03T04:30:03.723Z,16.960449
2022-08-03T04:31:12.391Z,16.930237
2022-08-03T04:32:21.084Z,16.930237
2022-08-03T04:33:29.831Z,16.960449
2022-08-03T04:34:37.455Z,16.940308
2022-08-03T04:35:59.735Z,16.990662
2022-08-03T04:36:57.757Z,16.990662
2022-08-03T04:38:05.491Z,16.97052
2022-08-03T04:39:15.123Z,16.960449
2022-08-03T04:40:23.775Z,16.940308
2022-08-03T04:41:33.424Z,16.940308
2022-08-03T04:42:44.098Z,16.990662
2022-08-03T04:43:53.836Z,17.010803
2022-08-03T04:45:01.936Z,17.041016
2022-08-03T04:46:11.167Z,17.061157
2022-08-03T04:47:19.840Z,17.081299
2022-08-03T04:48:27.499Z,17.111511
2022-08-03T04:49:36.264Z,17.141724
2022-08-03T04:50:43.902Z,17.192078
2022-08-03T04:51:52.561Z,17.22229
2022-08-03T04:53:02.236Z,17.22229
2022-08-03T04:54:12.226Z,17.232361
2022-08-03T04:55:27.953Z,17.242432
2022-08-03T04:56:47.450Z,17.272644
2022-08-03T04:58:06.213Z,17.302856
2022-08-03T04:59:15.902Z,17.34314
2022-08-03T05:00:24.573Z,17.423706
2022-08-03T05:01:33.340Z,17.494202
2022-08-03T05:02:42.946Z,17.544556
2022-08-03T05:03:51.656Z,17.574768
2022-08-03T05:05:01.337Z,17.60498
2022-08-03T05:06:11.737Z,17.60498
2022-08-03T05:07:24.196Z,17.60498
2022-08-03T05:08:30.438Z,17.635193
2022-08-03T05:09:50.308Z,17.675476
2022-08-03T05:10:49.718Z,17.705688
2022-08-03T05:12:00.397Z,17.705688
2022-08-03T05:13:09.061Z,17.735901
2022-08-03T05:14:18.734Z,17.796326
2022-08-03T05:15:29.355Z,17.826538
2022-08-03T05:16:40.013Z,17.84668
2022-08-03T05:17:49.693Z,17.886963
2022-08-03T05:18:57.372Z,17.917175
2022-08-03T05:20:06.034Z,17.947388
2022-08-03T05:21:16.726Z,17.997742
2022-08-03T05:22:25.402Z,18.048096
2022-08-03T05:23:35.092Z,18.078308
2022-08-03T05:24:43.755Z,18.148804
2022-08-03T05:25:52.412Z,18.219299
2022-08-03T05:27:01.069Z,18.279724
2022-08-03T05:28:08.785Z,18.330078
2022-08-03T05:29:17.487Z,18.35022
2022-08-03T05:30:26.464Z,18.35022
2022-08-03T05:31:35.824Z,18.370361
2022-08-03T05:32:45.478Z,18.400574
2022-08-03T05:33:54.160Z,18.450928
2022-08-03T05:35:56.358Z,18.450928
2022-08-03T05:36:12.474Z,18.501282
2022-08-03T05:37:20.139Z,18.561707
2022-08-03T05:38:33.932Z,18.60199
2022-08-03T05:39:38.451Z,18.652344
2022-08-03T05:40:46.935Z,18.73291
2022-08-03T05:41:56.853Z,18.783264
2022-08-03T05:43:05.559Z,18.803406
2022-08-03T05:44:15.236Z,18.863831
2022-08-03T05:45:28.227Z,18.863831
2022-08-03T05:46:34.588Z,18.894043
2022-08-03T05:47:43.232Z,18.98468
2022-08-03T05:48:52.935Z,19.035034
2022-08-03T05:50:01.595Z,19.10553
2022-08-03T05:51:12.013Z,19.135742
2022-08-03T05:52:20.012Z,19.155884
2022-08-03T05:53:27.667Z,19.206238
2022-08-03T05:54:55.736Z,19.256592
2022-08-03T05:55:51.337Z,19.286804
2022-08-03T05:56:58.655Z,19.296875
2022-08-03T05:58:08.335Z,19.3573
2022-08-03T05:59:36.859Z,19.437866
2022-08-03T06:00:26.618Z,19.518433
2022-08-03T06:01:35.385Z,19.588928
2022-08-03T06:02:42.998Z,19.629211
2022-08-03T06:03:52.692Z,19.669495
2022-08-03T06:05:00.359Z,19.709778
2022-08-03T06:06:09.026Z,19.810486
2022-08-03T06:07:18.698Z,19.880981
2022-08-03T06:08:26.388Z,19.951477
2022-08-03T06:09:56.653Z,20.032043
2022-08-03T06:10:46.913Z,20.092468
2022-08-03T06:11:55.571Z,20.102539
2022-08-03T06:13:05.236Z,20.102539
2022-08-03T06:14:12.901Z,20.132751
2022-08-03T06:15:21.587Z,20.183105
2022-08-03T06:16:31.256Z,20.253601
2022-08-03T06:17:40.937Z,20.324097
2022-08-03T06:18:50.642Z,20.404663
2022-08-03T06:19:59.337Z,20.475159
2022-08-03T06:21:09.641Z,20.545654
2022-08-03T06:22:16.931Z,20.585938
2022-08-03T06:23:53.610Z,20.61615
2022-08-03T06:24:38.001Z,20.686646
2022-08-03T06:25:47.641Z,20.797424
2022-08-03T06:26:55.336Z,20.877991
2022-08-03T06:28:04.996Z,20.968628
2022-08-03T06:29:15.637Z,21.029053
2022-08-03T06:30:23.314Z,21.11969
2022-08-03T06:31:33.780Z,21.149902
2022-08-03T06:32:41.723Z,21.25061
2022-08-03T06:34:31.693Z,21.321106
2022-08-03T06:35:02.027Z,21.37146
2022-08-03T06:36:09.702Z,21.421814
2022-08-03T06:37:19.348Z,21.462097
2022-08-03T06:38:28.038Z,21.542664
2022-08-03T06:39:37.703Z,21.603088
2022-08-03T06:40:47.378Z,21.663513
2022-08-03T06:41:57.027Z,21.75415
2022-08-03T06:43:04.676Z,21.854858
2022-08-03T06:44:13.368Z,21.975708
2022-08-03T06:45:22.021Z,22.106628
2022-08-03T06:46:32.665Z,22.217407
2022-08-03T06:47:42.346Z,22.328186
2022-08-03T06:48:52.145Z,22.438965
2022-08-03T06:50:13.098Z,22.549744
2022-08-03T06:51:11.332Z,22.700806
2022-08-03T06:52:37.394Z,22.841797
2022-08-03T06:53:29.683Z,22.982788
2022-08-03T06:54:39.341Z,23.093567
2022-08-03T06:55:51.208Z,23.184204
2022-08-03T06:56:57.681Z,23.315125
2022-08-03T06:58:06.354Z,23.456116
2022-08-03T07:00:06.913Z,23.687744
2022-08-03T07:00:25.674Z,23.828735
2022-08-03T07:01:34.432Z,23.959656
2022-08-03T07:02:43.026Z,24.110718
2022-08-03T07:03:52.747Z,24.281921
2022-08-03T07:05:00.324Z,24.453125
2022-08-03T07:06:10.001Z,24.614258
2022-08-03T07:07:17.702Z,24.725037
2022-08-03T07:08:33.328Z,24.845886
2022-08-03T07:09:36.109Z,24.926453
2022-08-03T07:10:45.781Z,25.037231
2022-08-03T07:11:55.441Z,25.178223
2022-08-03T07:13:05.297Z,25.309143
2022-08-03T07:14:13.975Z,25.429993
2022-08-03T07:15:53.731Z,25.530701
2022-08-03T07:16:34.330Z,25.65155
2022-08-03T07:17:42.997Z,25.7724
2022-08-03T07:18:52.693Z,25.90332
2022-08-03T07:20:01.368Z,26.054382
2022-08-03T07:21:11.026Z,26.205444
2022-08-03T07:22:19.830Z,26.336365
2022-08-03T07:23:28.352Z,26.447144
2022-08-03T07:24:37.044Z,26.557922
2022-08-03T07:25:44.718Z,26.739197
2022-08-03T07:26:53.379Z,26.90033
2022-08-03T07:28:03.081Z,27.101746
2022-08-03T07:29:14.689Z,27.182312
2022-08-03T07:30:22.513Z,27.323303
2022-08-03T07:31:34.314Z,27.424011
2022-08-03T07:32:49.047Z,27.454224
2022-08-03T07:33:49.432Z,27.544861
2022-08-03T07:35:00.781Z,27.66571
2022-08-03T07:36:07.765Z,27.816772
2022-08-03T07:37:17.478Z,27.897339
2022-08-03T07:38:26.150Z,28.068542
2022-08-03T07:39:35.822Z,28.078613
2022-08-03T07:40:46.358Z,28.189392
2022-08-03T07:41:53.212Z,28.2901
2022-08-03T07:43:01.896Z,28.380737
2022-08-03T07:44:09.626Z,28.390808
2022-08-03T07:45:18.228Z,28.421021
2022-08-03T07:46:27.905Z,28.481445
2022-08-03T07:47:36.639Z,28.602295
2022-08-03T07:48:46.310Z,28.703003
2022-08-03T07:49:56.005Z,28.823853
2022-08-03T07:51:04.685Z,28.934631
2022-08-03T07:52:14.547Z,28.964844
2022-08-03T07:53:24.060Z,29.04541
2022-08-03T07:54:32.733Z,29.186401
2022-08-03T07:55:42.430Z,29.266968
2022-08-03T07:56:50.102Z,29.337463
2022-08-03T07:57:59.760Z,29.377747
2022-08-03T07:59:09.465Z,29.41803
2022-08-03T08:00:17.146Z,29.468384
2022-08-03T08:01:26.910Z,29.508667
2022-08-03T08:02:34.515Z,29.569092
2022-08-03T08:03:52.485Z,29.629517
2022-08-03T08:04:53.861Z,29.599304
2022-08-03T08:06:03.518Z,29.609375
2022-08-03T08:07:13.228Z,29.659729
2022-08-03T08:08:22.892Z,29.730225
2022-08-03T08:09:32.560Z,29.790649
2022-08-03T08:10:42.284Z,29.911499
2022-08-03T08:11:52.950Z,29.981995
2022-08-03T08:13:01.616Z,30.062561
2022-08-03T08:14:11.291Z,30.133057
2022-08-03T08:15:19.979Z,30.233765
2022-08-03T08:16:29.888Z,30.344543
2022-08-03T08:17:39.602Z,30.495605
2022-08-03T08:18:47.288Z,30.525818
2022-08-03T08:19:56.996Z,30.455322
2022-08-03T08:21:06.657Z,30.284119
2022-08-03T08:22:15.524Z,30.324402
2022-08-03T08:23:43.074Z,30.374756
2022-08-03T08:24:36.643Z,30.404968
2022-08-03T08:25:46.317Z,30.465393
2022-08-03T08:26:54.978Z,30.535889
2022-08-03T08:28:21.826Z,30.626526
2022-08-03T08:29:14.399Z,30.727234
2022-08-03T08:30:23.078Z,30.898438
2022-08-03T08:31:32.748Z,31.0495
2022-08-03T08:32:42.449Z,31.099854
2022-08-03T08:34:06.413Z,31.150208
2022-08-03T08:35:01.813Z,30.606384
2022-08-03T08:36:14.892Z,30.193481
2022-08-03T08:37:18.140Z,30.092773
2022-08-03T08:38:27.838Z,29.931641
2022-08-03T08:39:37.545Z,30.032349
2022-08-03T08:40:46.273Z,30.163269
2022-08-03T08:41:55.973Z,30.253906
2022-08-03T08:43:07.597Z,30.193481
2022-08-03T08:44:13.316Z,30.30426
2022-08-03T08:45:23.021Z,30.495605
2022-08-03T08:46:30.681Z,30.505676
2022-08-03T08:47:50.752Z,30.475464
2022-08-03T08:48:50.024Z,30.606384
2022-08-03T08:50:09.561Z,30.777588
2022-08-03T08:51:08.431Z,30.968933
2022-08-03T08:52:25.036Z,31.069641
2022-08-03T08:53:28.758Z,30.697021
2022-08-03T08:54:38.443Z,30.455322
2022-08-03T08:55:56.664Z,30.122986
2022-08-03T08:56:56.852Z,30.062561
2022-08-03T08:58:07.527Z,29.730225
2022-08-03T08:59:18.190Z,29.780579
2022-08-03T09:00:28.869Z,30.032349
2022-08-03T09:01:37.554Z,30.274048
2022-08-03T09:02:45.249Z,30.465393
2022-08-03T09:03:54.956Z,30.717163
2022-08-03T09:05:07.270Z,30.908508
2022-08-03T09:06:12.294Z,31.0495
2022-08-03T09:07:22.019Z,31.089783
2022-08-03T09:08:29.731Z,31.18042
2022-08-03T09:10:01.397Z,31.331482
2022-08-03T09:10:50.194Z,31.462402
2022-08-03T09:12:14.518Z,31.643677
2022-08-03T09:13:10.584Z,31.784668
2022-08-03T09:14:37.204Z,31.965942
2022-08-03T09:15:29.007Z,31.996155
2022-08-03T09:16:38.827Z,31.714172
2022-08-03T09:17:50.792Z,31.140137
2022-08-03T09:18:57.295Z,30.868225
2022-08-03T09:20:06.279Z,30.908508
2022-08-03T09:21:29.946Z,30.747375
2022-08-03T09:22:24.854Z,30.656738
2022-08-03T09:23:51.348Z,30.797729
2022-08-03T09:24:43.463Z,31.069641
2022-08-03T09:25:53.965Z,30.827942
2022-08-03T09:27:03.646Z,30.344543
2022-08-03T09:28:12.341Z,30.213623
2022-08-03T09:29:22.010Z,29.971924
2022-08-03T09:30:33.184Z,30.062561
2022-08-03T09:31:41.444Z,30.42511
2022-08-03T09:32:50.143Z,30.767517
2022-08-03T09:33:58.853Z,31.150208
2022-08-03T09:35:09.458Z,31.099854
2022-08-03T09:36:17.227Z,31.170349
2022-08-03T09:38:12.402Z,31.210632
2022-08-03T09:38:37.652Z,31.200562
2022-08-03T09:39:45.327Z,31.331482
2022-08-03T09:40:59.416Z,31.653748
2022-08-03T09:42:04.701Z,31.331482
2022-08-03T09:43:14.436Z,31.271057
2022-08-03T09:44:25.961Z,30.968933
2022-08-03T09:45:31.787Z,30.838013
2022-08-03T09:46:41.481Z,30.747375
2022-08-03T09:47:51.128Z,30.968933
2022-08-03T09:48:59.929Z,30.918579
2022-08-03T09:50:10.805Z,31.019287
2022-08-03T09:51:33.377Z,31.0495
2022-08-03T09:52:33.388Z,31.240845
2022-08-03T09:53:40.654Z,31.593323
2022-08-03T09:54:51.369Z,31.895447
2022-08-03T09:56:33.117Z,32.227783
2022-08-03T09:57:11.845Z,32.459412
2022-08-03T09:58:20.541Z,32.257996
2022-08-03T09:59:30.345Z,32.358704
2022-08-03T10:00:40.143Z,32.580261
2022-08-03T10:01:47.932Z,32.82196
2022-08-03T10:02:57.606Z,33.144226
2022-08-03T10:04:05.238Z,33.355713
2022-08-03T10:05:17.560Z,33.516846
2022-08-03T10:06:25.158Z,33.144226
2022-08-03T10:07:32.489Z,32.600403
2022-08-03T10:08:43.175Z,32.680969
2022-08-03T10:09:50.860Z,32.862244
2022-08-03T10:11:00.589Z,33.07373
2022-08-03T10:12:10.308Z,33.244934
2022-08-03T10:13:18.001Z,33.486633
2022-08-03T10:14:27.677Z,33.617554
2022-08-03T10:16:20.800Z,33.275146
2022-08-03T10:16:46.035Z,33.174438
2022-08-03T10:17:55.783Z,33.154297
2022-08-03T10:19:05.463Z,33.335571
2022-08-03T10:20:14.146Z,33.637695
2022-08-03T10:21:23.826Z,33.617554
2022-08-03T10:22:33.518Z,33.667908
2022-08-03T10:23:43.383Z,33.677979
2022-08-03T10:24:52.096Z,33.768616
2022-08-03T10:26:00.840Z,33.808899
2022-08-03T10:27:10.574Z,33.990173
2022-08-03T10:28:18.251Z,34.171448
2022-08-03T10:29:26.966Z,34.292297
2022-08-03T10:30:35.657Z,34.503784
2022-08-03T10:31:54.595Z,34.7052
2022-08-03T10:32:53.980Z,34.886475
2022-08-03T10:34:02.675Z,34.846191
2022-08-03T10:35:18.914Z,34.886475
2022-08-03T10:36:20.069Z,34.886475
2022-08-03T10:37:30.734Z,34.916687
2022-08-03T10:38:38.405Z,34.846191
2022-08-03T10:39:48.083Z,34.846191
2022-08-03T10:40:59.007Z,34.624634
2022-08-03T10:42:05.542Z,34.513855
2022-08-03T10:43:16.206Z,34.382935
2022-08-03T10:44:24.896Z,34.362793
2022-08-03T10:45:34.567Z,34.352722
2022-08-03T10:46:45.078Z,34.423218
2022-08-03T10:47:51.951Z,34.554138
2022-08-03T10:49:02.719Z,34.775696
2022-08-03T10:50:11.344Z,35.047607
2022-08-03T10:51:20.085Z,35.108032
2022-08-03T10:52:31.351Z,35.047607
2022-08-03T10:53:40.509Z,34.946899
2022-08-03T10:54:50.123Z,34.856262
2022-08-03T10:56:00.827Z,34.95697
2022-08-03T10:57:13.753Z,35.017395
2022-08-03T10:58:25.174Z,35.178528
2022-08-03T10:59:30.877Z,35.289307
2022-08-03T11:00:39.582Z,35.289307
2022-08-03T11:01:59.380Z,35.309448
2022-08-03T11:02:59.938Z,35.228882
2022-08-03T11:04:11.091Z,34.987183
2022-08-03T11:05:18.315Z,34.95697
2022-08-03T11:06:25.990Z,35.017395
2022-08-03T11:07:35.704Z,34.856262
2022-08-03T11:08:45.438Z,34.886475
2022-08-03T11:09:54.139Z,34.997253
2022-08-03T11:11:04.855Z,34.886475
2022-08-03T11:12:12.550Z,34.846191
2022-08-03T11:13:21.241Z,34.846191
2022-08-03T11:14:30.920Z,34.987183
2022-08-03T11:15:39.623Z,35.067749
2022-08-03T11:16:49.307Z,35.067749
2022-08-03T11:17:58.998Z,35.097961
2022-08-03T11:19:09.686Z,35.238953
2022-08-03T11:20:18.368Z,35.390015
2022-08-03T11:21:30.118Z,35.410156
2022-08-03T11:22:34.736Z,35.359802
2022-08-03T11:24:02.215Z,35.369873
2022-08-03T11:24:55.089Z,35.339661
2022-08-03T11:26:04.796Z,35.299377
2022-08-03T11:27:13.718Z,35.359802
2022-08-03T11:28:21.394Z,35.46051
2022-08-03T11:29:31.127Z,35.601501
2022-08-03T11:30:38.757Z,35.671997
2022-08-03T11:31:50.085Z,35.671997
2022-08-03T11:32:56.123Z,35.551147
2022-08-03T11:34:03.822Z,35.601501
2022-08-03T11:35:13.515Z,35.641785
2022-08-03T11:36:32.142Z,35.097961
2022-08-03T11:37:33.397Z,35.047607
2022-08-03T11:38:43.600Z,35.188599
2022-08-03T11:39:52.266Z,35.420227
2022-08-03T11:41:02.971Z,35.682068
2022-08-03T11:42:12.656Z,35.883484
2022-08-03T11:43:21.368Z,35.974121
2022-08-03T11:44:31.100Z,36.054688
2022-08-03T11:45:39.795Z,36.0849
2022-08-03T11:46:48.476Z,36.20575
2022-08-03T11:47:58.187Z,36.074829
2022-08-03T11:49:10.203Z,36.024475
2022-08-03T11:50:15.534Z,36.094971
2022-08-03T11:51:25.584Z,36.276245
2022-08-03T11:52:32.910Z,36.387024
2022-08-03T11:53:42.600Z,36.225891
2022-08-03T11:54:51.298Z,36.296387
2022-08-03T11:56:00.107Z,36.20575
2022-08-03T11:57:10.793Z,36.20575
2022-08-03T11:59:00.373Z,36.266174
2022-08-03T11:59:32.120Z,36.356812
2022-08-03T12:00:41.786Z,36.397095
2022-08-03T12:01:49.478Z,36.397095
2022-08-03T12:02:58.237Z,36.195679
2022-08-03T12:04:06.826Z,36.165466
2022-08-03T12:05:15.521Z,36.276245
2022-08-03T12:06:24.204Z,36.46759
2022-08-03T12:08:02.984Z,36.648865
2022-08-03T12:08:42.615Z,36.618652
2022-08-03T12:09:52.309Z,36.004333
2022-08-03T12:11:00.993Z,35.984192
2022-08-03T12:12:10.706Z,36.024475
2022-08-03T12:13:57.247Z,35.984192
2022-08-03T12:14:46.161Z,36.074829
2022-08-03T12:15:40.696Z,35.802917
2022-08-03T12:16:48.405Z,35.661926
2022-08-03T12:17:57.898Z,35.661926
2022-08-03T12:19:07.800Z,35.792847
2022-08-03T12:20:15.488Z,35.984192
2022-08-03T12:21:26.172Z,36.235962
2022-08-03T12:22:34.838Z,36.568298
2022-08-03T12:23:42.514Z,36.759644
2022-08-03T12:24:52.246Z,36.880493
2022-08-03T12:25:59.941Z,36.991272
2022-08-03T12:27:09.603Z,36.789856
2022-08-03T12:28:28.479Z,36.71936
2022-08-03T12:29:29.975Z,36.739502
2022-08-03T12:30:39.913Z,36.538086
2022-08-03T12:31:48.654Z,36.618652
2022-08-03T12:32:57.343Z,36.860352
2022-08-03T12:34:06.062Z,37.081909
2022-08-03T12:35:15.806Z,37.253113
2022-08-03T12:36:23.497Z,37.303467
2022-08-03T12:37:33.428Z,37.263184
2022-08-03T12:38:41.885Z,37.21283
2022-08-03T12:40:00.859Z,37.172546
2022-08-03T12:41:01.281Z,37.102051
2022-08-03T12:42:09.993Z,37.112122
2022-08-03T12:43:18.663Z,36.830139
2022-08-03T12:44:29.337Z,36.618652
2022-08-03T12:45:36.001Z,36.759644
2022-08-03T12:46:48.045Z,36.84021
2022-08-03T12:47:54.385Z,37.031555
2022-08-03T12:49:03.132Z,37.202759
2022-08-03T12:50:12.758Z,37.202759
2022-08-03T12:51:20.435Z,37.323608
2022-08-03T12:52:30.113Z,37.424316
2022-08-03T12:53:39.827Z,37.484741
2022-08-03T12:54:47.505Z,37.47467
2022-08-03T12:56:05.554Z,37.444458
2022-08-03T12:57:06.834Z,37.404175
2022-08-03T12:58:19.037Z,37.293396
2022-08-03T12:59:30.032Z,37.323608
2022-08-03T13:00:38.985Z,37.353821
2022-08-03T13:01:49.053Z,37.404175
2022-08-03T13:03:17.611Z,37.666016
2022-08-03T13:04:09.950Z,37.887573
2022-08-03T13:05:19.631Z,38.240051
2022-08-03T13:06:27.346Z,38.421326
2022-08-03T13:07:35.042Z,38.431396
2022-08-03T13:08:45.738Z,38.310547
2022-08-03T13:09:53.409Z,38.270264
2022-08-03T13:11:03.135Z,38.209839
2022-08-03T13:12:11.803Z,38.199768